Airfield :
LOGIN :

Register | Disclaimer

   EN    FR    IT 

 










Legend :    VFR   Marginal VFR   IFR   Intensive IFR   Very Intensive IFR
Visi :
Ceiling :
>= 8 km
>= 3000ft
5 to 8 km
1000 to 3000 ft
1500m to 5 km
500 to 1000 ft
800 to 1500m
200 to 500 ft
< 800m
< 200 ft
Symbols :   Thunderstorms  Fog  Heavy snow  Heavy precipitations  Wind > 20 kt
SIGMETs :     Misc.  Thunderstorms  Icing  Turbulence  Mountain Waves  Volcanic Ashes






- Airport Elevation : 289 ft
- IATA code : ZAD


LDZD - Zadar

CURRENT METAR :
  • 191730Z 34004KT 260V350 CAVOK 08/04 Q1016 NOSIG

EXPIRED METARs :
  • 191700Z 32004KT CAVOK 10/05 Q1016 NOSIG
  • 191630Z 31004KT 9999 FEW033 11/05 Q1016 NOSIG
  • 191600Z 29006KT 9999 FEW033 12/06 Q1016 NOSIG
  • 191530Z 28011KT 9999 FEW033 12/06 Q1016 NOSIG
  • 191500Z 28010KT 9999 SCT030 13/07 Q1016 NOSIG

TAF TAF LDZD
Valid from the 19 at 18:00 until the 20 at 18:00 UTC


191725Z 1918/2018 08006KT 9999 SCT030 TX14/2012Z TN03/2017Z
PROB30
TEMPO 1918/1923 32015KT TSRA FEW025CB SCT030
BECMG 1920/1922 04010KT
PROB30
TEMPO 2000/2008 04015G25KT
BECMG 2010/2012 33007KT



MET'MAP, your aeronautical weather chart ! - Copyright ORBIFLY December 2007 - Disclaimer

ORBIFLY MET'MAP TEAM :

Programming & Development : Alexandra Zaïnal
Concept & original design : Baudouin d'Aumeries
Assistance for programming : Marc-Olivier Méhu
Technical & hardware support : Manuel Goepfert

Contact : metmap@orbifly.com




SOURCES & CREDITS :

   NOAA